Time;durP1;ratioP1;P1;durP2;ratioP2;P2;SDS_P1;SDS_P2;PMS_P1;PMS_P2;Temp;Humidity;BMP_temperature;BMP_pressure;BME280_temperature;BME280_humidity;BME280_pressure;Samples;Min_cycle;Max_cycle;Signal;HPM_P1;HPM_P2
2022/12/23 00:01:51;;;;;;;0.30;0.20;;;7.90;99.90;;;;;;5056239;28;20550;-79
2022/12/23 00:04:18;;;;;;;0.90;0.80;;;7.90;99.90;;;;;;5055451;28;20470;-79
2022/12/23 00:06:46;;;;;;;0.30;0.20;;;7.90;99.90;;;;;;5055669;28;20416;-79
2022/12/23 00:09:13;;;;;;;0.30;0.30;;;7.90;99.90;;;;;;5055725;28;20823;-79
2022/12/23 00:15:04;;;;;;;0.30;0.20;;;7.90;99.90;;;;;;5055978;28;20439;-80
2022/12/23 00:17:11;;;;;;;0.30;0.30;;;7.90;99.90;;;;;;5055273;28;20445;-80
2022/12/23 00:19:38;;;;;;;0.40;0.40;;;8.00;99.90;;;;;;5055554;28;20442;-80
2022/12/23 00:22:06;;;;;;;0.30;0.20;;;8.00;99.90;;;;;;5055306;28;20439;-80
2022/12/23 00:24:33;;;;;;;0.30;0.30;;;8.00;99.90;;;;;;5055153;28;20486;-80
2022/12/23 00:26:59;;;;;;;0.30;0.20;;;8.10;99.90;;;;;;5055144;28;20453;-80
2022/12/23 00:29:26;;;;;;;0.30;0.30;;;8.10;99.90;;;;;;5054713;28;20451;-80
2022/12/23 00:31:53;;;;;;;0.30;0.30;;;8.10;99.90;;;;;;5055324;28;20442;-79
2022/12/23 00:34:20;;;;;;;0.30;0.30;;;8.10;99.90;;;;;;5055196;28;20473;-80
2022/12/23 00:36:46;;;;;;;3.43;0.30;;;8.10;99.90;;;;;;5055206;28;20486;-80
2022/12/23 00:44:51;;;;;;;0.30;0.20;;;8.20;99.90;;;;;;5030480;28;20486;-80
2022/12/23 00:49:58;;;;;;;0.30;0.30;;;8.20;99.90;;;;;;5054365;28;20907;-80
2022/12/23 00:52:26;;;;;;;0.30;0.20;;;8.20;99.90;;;;;;5055020;28;20435;-81
2022/12/23 00:54:54;;;;;;;1.07;0.30;;;8.20;99.90;;;;;;5054722;28;20490;-81
2022/12/23 00:57:21;;;;;;;0.30;0.30;;;8.30;99.90;;;;;;5054847;28;20439;-81
2022/12/23 00:59:47;;;;;;;0.40;0.30;;;8.20;99.90;;;;;;5054746;28;20455;-81
2022/12/23 01:07:42;;;;;;;0.30;0.20;;;8.30;99.90;;;;;;5054403;28;20500;-80
2022/12/23 01:10:11;;;;;;;0.50;0.30;;;8.40;99.90;;;;;;5054263;28;20973;-81
2022/12/23 01:12:37;;;;;;;0.30;0.27;;;8.30;99.90;;;;;;5054453;28;20442;-81
2022/12/23 01:15:05;;;;;;;0.30;0.30;;;8.40;99.90;;;;;;5054373;28;20482;-81
2022/12/23 01:17:32;;;;;;;0.30;0.20;;;8.40;99.90;;;;;;5054426;28;20454;-81
2022/12/23 01:19:58;;;;;;;0.30;0.30;;;8.40;99.90;;;;;;5054097;28;20934;-81
2022/12/23 01:22:25;;;;;;;0.30;0.30;;;8.40;99.90;;;;;;5054271;28;20448;-81
2022/12/23 01:24:52;;;;;;;0.30;0.30;;;8.40;99.90;;;;;;5053797;28;20500;-81
2022/12/23 01:27:20;;;;;;;0.30;0.30;;;8.50;99.90;;;;;;5054227;28;20458;-80
2022/12/23 01:29:47;;;;;;;0.30;0.20;;;8.50;99.90;;;;;;5054206;28;20455;-81
2022/12/23 01:32:13;;;;;;;0.30;0.20;;;8.50;99.90;;;;;;5053850;28;20953;-82
2022/12/23 01:34:40;;;;;;;0.30;0.30;;;8.60;99.90;;;;;;5053769;28;20475;-82
2022/12/23 01:37:07;;;;;;;0.30;0.30;;;8.60;99.90;;;;;;5053980;28;20485;-82
2022/12/23 01:39:34;;;;;;;0.30;0.30;;;8.70;99.90;;;;;;5053982;28;20476;-82
2022/12/23 01:44:54;;;;;;;0.30;0.20;;;8.80;99.90;;;;;;5053882;28;20453;-82
2022/12/23 01:47:27;;;;;;;0.30;0.20;;;8.80;99.90;;;;;;5053964;28;20437;-82
2022/12/23 01:49:59;;;;;;;0.30;0.20;;;8.80;99.90;;;;;;5053879;28;20439;-82
2022/12/23 01:52:26;;;;;;;0.30;0.20;;;8.80;99.90;;;;;;5053565;28;20435;-82
2022/12/23 01:54:54;;;;;;;0.30;0.30;;;8.90;99.90;;;;;;5053628;28;20466;-82
2022/12/23 01:57:21;;;;;;;0.30;0.30;;;8.90;99.90;;;;;;5053446;28;20834;-82
2022/12/23 02:05:22;;;;;;;0.30;0.20;;;9.00;99.90;;;;;;5053701;28;20514;-80
2022/12/23 02:10:45;;;;;;;0.30;0.30;;;9.10;99.90;;;;;;5053561;28;20457;-80
2022/12/23 02:13:16;;;;;;;0.30;0.20;;;9.20;99.90;;;;;;5053481;28;20470;-81
2022/12/23 02:18:59;;;;;;;0.30;0.20;;;9.20;99.90;;;;;;5053510;28;20405;-82
2022/12/23 02:21:47;;;;;;;0.30;0.20;;;9.30;99.90;;;;;;5053393;28;20431;-81
2022/12/23 02:24:35;;;;;;;0.30;0.30;;;9.30;99.90;;;;;;5052933;28;20490;-81
2022/12/23 02:27:15;;;;;;;0.30;0.30;;;9.20;99.90;;;;;;5053324;28;20439;-82
2022/12/23 02:30:07;;;;;;;0.40;0.30;;;9.30;99.90;;;;;;5053003;28;20438;-81
2022/12/23 02:32:46;;;;;;;0.30;0.20;;;9.30;99.90;;;;;;5053287;28;20427;-81
2022/12/23 02:35:17;;;;;;;0.30;0.27;;;9.30;99.90;;;;;;5053181;28;20438;-81
2022/12/23 02:37:53;;;;;;;0.30;0.20;;;9.40;99.90;;;;;;5052914;28;20442;-81
2022/12/23 02:40:31;;;;;;;0.30;0.30;;;9.40;99.90;;;;;;5052938;28;20792;-81
2022/12/23 02:43:02;;;;;;;0.30;0.23;;;9.40;99.90;;;;;;5053198;28;20475;-81
2022/12/23 02:45:39;;;;;;;0.30;0.20;;;9.40;99.90;;;;;;5053180;28;20427;-81
2022/12/23 02:48:12;;;;;;;0.30;0.20;;;9.40;99.90;;;;;;5053181;28;20434;-81
2022/12/23 02:50:42;;;;;;;0.30;0.20;;;9.40;99.90;;;;;;5053106;28;20422;-81
2022/12/23 02:53:17;;;;;;;0.30;0.30;;;9.40;99.90;;;;;;5056479;28;20458;-81
2022/12/23 02:55:47;;;;;;;0.30;0.30;;;9.40;99.90;;;;;;5057067;28;20476;-80
2022/12/23 02:58:17;;;;;;;0.30;0.30;;;9.50;99.90;;;;;;5057059;28;20448;-81
2022/12/23 03:00:46;;;;;;;0.30;0.20;;;9.50;99.90;;;;;;5056995;28;20450;-81
2022/12/23 03:03:16;;;;;;;0.30;0.30;;;9.50;99.90;;;;;;5056890;28;20470;-81
2022/12/23 03:05:47;;;;;;;0.30;0.20;;;9.50;99.90;;;;;;5056929;28;20565;-80
2022/12/23 03:08:16;;;;;;;0.30;0.20;;;9.50;99.90;;;;;;5056929;28;20435;-81
2022/12/23 03:11:01;;;;;;;0.30;0.20;;;9.60;99.90;;;;;;5056828;28;20446;-81
2022/12/23 03:13:38;;;;;;;0.30;0.30;;;9.60;99.90;;;;;;5056767;28;20468;-81
2022/12/23 03:16:18;;;;;;;0.30;0.20;;;9.60;99.90;;;;;;5056711;28;20465;-81
2022/12/23 03:18:58;;;;;;;0.30;0.30;;;9.60;99.90;;;;;;5057170;28;20807;-81
2022/12/23 03:21:34;;;;;;;0.30;0.20;;;9.60;99.90;;;;;;5056700;28;20438;-81
2022/12/23 03:24:09;;;;;;;0.30;0.20;;;9.60;99.90;;;;;;5056280;28;20486;-82
2022/12/23 03:26:43;;;;;;;0.30;0.30;;;9.60;99.90;;;;;;5056448;28;20960;-82
2022/12/23 03:29:15;;;;;;;0.30;0.20;;;9.60;99.90;;;;;;5056587;28;20454;-81
2022/12/23 03:31:44;;;;;;;0.30;0.30;;;9.60;99.90;;;;;;5056481;28;20438;-81
2022/12/23 03:34:16;;;;;;;0.30;0.20;;;9.70;99.90;;;;;;5056367;28;20470;-82
2022/12/23 03:36:48;;;;;;;0.30;0.20;;;9.70;99.90;;;;;;5056328;28;20462;-81
2022/12/23 03:39:18;;;;;;;0.30;0.30;;;9.70;99.90;;;;;;5056382;28;20427;-82
2022/12/23 03:41:52;;;;;;;0.30;0.20;;;9.70;99.90;;;;;;5056283;28;20449;-82
2022/12/23 03:44:23;;;;;;;0.30;0.20;;;9.70;99.90;;;;;;5055905;28;20989;-82
2022/12/23 03:46:54;;;;;;;0.30;0.30;;;9.70;99.90;;;;;;5056280;28;20431;-81
2022/12/23 03:49:27;;;;;;;0.30;0.20;;;9.80;99.90;;;;;;5056234;28;20441;-82
2022/12/23 03:51:59;;;;;;;0.30;0.20;;;9.80;99.90;;;;;;5056127;28;20430;-82
2022/12/23 03:54:31;;;;;;;0.30;0.20;;;9.80;99.90;;;;;;5056005;28;20474;-81
2022/12/23 03:57:02;;;;;;;0.30;0.20;;;9.70;99.90;;;;;;5055698;28;21043;-82
2022/12/23 03:59:31;;;;;;;0.30;0.30;;;9.80;99.90;;;;;;5055974;28;20442;-82
2022/12/23 04:02:06;;;;;;;0.30;0.20;;;9.80;99.90;;;;;;5055949;28;20449;-83
2022/12/23 04:04:50;;;;;;;0.30;0.20;;;9.80;99.90;;;;;;5055165;28;20465;-81
2022/12/23 04:07:21;;;;;;;0.30;0.20;;;9.80;99.90;;;;;;5055505;28;20434;-81
2022/12/23 04:09:50;;;;;;;0.30;0.20;;;9.80;99.90;;;;;;5055771;28;20430;-81
2022/12/23 04:12:17;;;;;;;0.30;0.20;;;9.90;99.90;;;;;;5055700;28;20819;-81
2022/12/23 04:14:47;;;;;;;0.30;0.30;;;9.80;99.90;;;;;;5055556;28;20470;-81
2022/12/23 04:17:14;;;;;;;0.30;0.20;;;9.80;99.90;;;;;;5055568;28;20481;-81
2022/12/23 04:19:44;;;;;;;0.30;0.20;;;9.70;99.90;;;;;;5055266;28;20968;-81
2022/12/23 04:22:11;;;;;;;0.30;0.30;;;9.60;99.90;;;;;;5055177;28;20992;-81
2022/12/23 04:24:38;;;;;;;0.30;0.20;;;9.50;99.90;;;;;;5054954;28;20490;-81
2022/12/23 04:27:04;;;;;;;0.30;0.23;;;9.50;99.90;;;;;;5055388;28;20513;-81
2022/12/23 04:29:31;;;;;;;0.30;0.20;;;9.40;99.90;;;;;;5055370;28;20453;-81
2022/12/23 04:31:58;;;;;;;0.30;0.20;;;9.40;99.90;;;;;;5055306;28;20451;-81
2022/12/23 04:34:25;;;;;;;0.30;0.20;;;9.40;99.90;;;;;;5054962;28;20451;-81
2022/12/23 04:36:53;;;;;;;0.30;0.20;;;9.30;99.90;;;;;;5055145;28;20482;-81
2022/12/23 04:39:19;;;;;;;0.30;0.20;;;9.30;99.90;;;;;;5055194;28;20454;-81
2022/12/23 04:41:47;;;;;;;0.30;0.20;;;9.40;99.90;;;;;;5055148;28;20816;-81
2022/12/23 04:44:14;;;;;;;0.30;0.20;;;9.40;99.90;;;;;;5055053;28;20470;-81
2022/12/23 04:46:41;;;;;;;0.30;0.30;;;9.40;99.90;;;;;;5055029;28;20453;-81
2022/12/23 04:49:08;;;;;;;0.30;0.20;;;9.40;99.90;;;;;;5054700;28;20446;-81
2022/12/23 04:51:35;;;;;;;0.30;0.20;;;9.40;99.90;;;;;;5054931;28;20450;-81
2022/12/23 04:54:03;;;;;;;4.53;0.30;;;9.40;99.90;;;;;;5054817;28;20481;-81
2022/12/23 04:56:30;;;;;;;0.30;0.20;;;9.40;99.90;;;;;;5054835;28;20485;-81
2022/12/23 04:58:56;;;;;;;0.30;0.30;;;9.50;99.90;;;;;;5054520;28;20446;-81
2022/12/23 05:01:23;;;;;;;0.30;0.30;;;9.50;99.90;;;;;;5054484;28;20442;-81
2022/12/23 05:03:50;;;;;;;0.30;0.30;;;9.50;99.90;;;;;;5054652;28;20470;-81
2022/12/23 05:06:17;;;;;;;0.30;0.30;;;9.60;99.90;;;;;;5054642;28;20453;-82
2022/12/23 05:08:43;;;;;;;0.30;0.23;;;9.50;99.90;;;;;;5054402;28;20433;-82
2022/12/23 05:11:11;;;;;;;0.30;0.20;;;9.60;99.90;;;;;;5054311;28;20919;-82
2022/12/23 05:13:38;;;;;;;0.30;0.23;;;9.60;99.90;;;;;;5054496;28;20469;-82
2022/12/23 05:16:06;;;;;;;0.30;0.30;;;9.60;99.90;;;;;;5053155;28;20841;-83
2022/12/23 05:18:32;;;;;;;0.30;0.20;;;9.60;99.90;;;;;;5054421;28;20790;-82
2022/12/23 05:20:59;;;;;;;0.30;0.20;;;9.60;99.90;;;;;;5054063;28;20451;-83
2022/12/23 05:23:26;;;;;;;0.30;0.30;;;9.60;99.90;;;;;;5053969;28;20489;-82
2022/12/23 05:25:54;;;;;;;0.30;0.20;;;9.60;99.90;;;;;;5054030;28;20968;-82
2022/12/23 05:28:23;;;;;;;0.30;0.30;;;9.60;99.90;;;;;;5053988;28;20941;-82
2022/12/23 05:30:56;;;;;;;0.30;0.30;;;9.60;99.90;;;;;;5053914;28;20465;-83
2022/12/23 05:33:23;;;;;;;0.30;0.20;;;9.60;99.90;;;;;;5054139;28;20471;-82
2022/12/23 05:35:50;;;;;;;0.30;0.30;;;9.60;99.90;;;;;;5053815;28;20945;-82
2022/12/23 05:38:17;;;;;;;0.30;0.20;;;9.60;99.90;;;;;;5054015;28;20486;-83
2022/12/23 05:40:43;;;;;;;0.30;0.30;;;9.60;99.90;;;;;;5054264;28;20450;-82
2022/12/23 05:43:10;;;;;;;0.30;0.20;;;9.60;99.90;;;;;;5053928;28;20466;-82
2022/12/23 05:45:39;;;;;;;0.30;0.20;;;9.60;99.90;;;;;;5053638;28;20937;-82
2022/12/23 05:48:06;;;;;;;0.30;0.20;;;9.70;99.90;;;;;;5053873;28;20477;-82
2022/12/23 05:50:33;;;;;;;0.30;0.30;;;9.70;99.90;;;;;;5053832;28;20447;-82
2022/12/23 05:52:59;;;;;;;0.30;0.30;;;9.70;99.90;;;;;;5053485;28;20982;-81
2022/12/23 05:55:26;;;;;;;0.30;0.30;;;9.70;99.90;;;;;;5053460;28;20454;-81
2022/12/23 05:57:53;;;;;;;0.30;0.30;;;9.70;99.90;;;;;;5053842;28;20675;-81
2022/12/23 06:00:21;;;;;;;0.40;0.30;;;9.70;99.90;;;;;;5053387;28;20938;-81
2022/12/23 06:02:49;;;;;;;0.30;0.20;;;9.70;99.90;;;;;;5053572;28;20457;-81
2022/12/23 06:05:16;;;;;;;0.30;0.20;;;9.70;99.90;;;;;;5053334;28;20460;-81
2022/12/23 06:07:43;;;;;;;0.30;0.20;;;9.70;99.90;;;;;;5053625;28;20458;-82
2022/12/23 06:10:11;;;;;;;0.40;0.30;;;9.70;99.90;;;;;;5053571;28;20446;-82
2022/12/23 06:12:37;;;;;;;0.30;0.30;;;9.70;99.90;;;;;;5053529;28;20451;-82
2022/12/23 06:15:05;;;;;;;0.30;0.20;;;9.70;99.90;;;;;;5053320;28;20454;-82
2022/12/23 06:17:32;;;;;;;0.30;0.20;;;9.70;99.90;;;;;;5053420;28;20483;-82
2022/12/23 06:20:00;;;;;;;0.30;0.20;;;9.60;99.90;;;;;;5053426;28;20446;-82
2022/12/23 06:22:27;;;;;;;0.40;0.30;;;9.70;99.90;;;;;;5053398;28;20453;-82
2022/12/23 06:24:54;;;;;;;0.30;0.30;;;9.60;99.90;;;;;;5052784;28;20493;-82
2022/12/23 06:27:20;;;;;;;0.40;0.30;;;9.60;99.90;;;;;;5053137;28;20449;-82
2022/12/23 06:29:48;;;;;;;0.30;0.20;;;9.70;99.90;;;;;;5053105;28;20442;-82
2022/12/23 06:32:14;;;;;;;0.30;0.30;;;9.70;99.90;;;;;;5053468;28;20454;-82
2022/12/23 06:34:41;;;;;;;0.30;0.30;;;9.70;99.90;;;;;;5053261;28;20474;-82
2022/12/23 06:37:09;;;;;;;0.30;0.20;;;9.70;99.90;;;;;;5053151;28;20485;-82
2022/12/23 06:39:36;;;;;;;0.30;0.27;;;9.70;99.90;;;;;;5053234;28;20525;-82
2022/12/23 06:42:03;;;;;;;0.30;0.20;;;9.70;99.90;;;;;;5052978;28;20805;-82
2022/12/23 06:44:29;;;;;;;0.30;0.20;;;9.70;99.90;;;;;;5053057;28;20459;-82
2022/12/23 06:46:56;;;;;;;0.30;0.30;;;9.70;99.90;;;;;;5053144;28;20446;-82
2022/12/23 06:49:23;;;;;;;0.30;0.30;;;9.70;99.90;;;;;;5053105;28;20446;-82
2022/12/23 06:51:49;;;;;;;0.30;0.30;;;9.70;99.90;;;;;;5053116;28;20443;-82
2022/12/23 06:54:17;;;;;;;0.30;0.30;;;9.70;99.90;;;;;;5053142;28;20474;-82
2022/12/23 06:56:44;;;;;;;0.30;0.20;;;9.70;99.90;;;;;;5052988;28;20493;-82
2022/12/23 06:59:11;;;;;;;0.30;0.30;;;9.70;99.90;;;;;;5052647;28;20450;-82
2022/12/23 07:01:39;;;;;;;0.50;0.33;;;9.70;99.90;;;;;;5052684;28;20450;-82
2022/12/23 07:04:05;;;;;;;0.30;0.30;;;9.60;99.90;;;;;;5052898;28;20524;-82
2022/12/23 07:06:32;;;;;;;0.30;0.20;;;9.60;99.90;;;;;;5053241;28;20450;-82
2022/12/23 07:08:59;;;;;;;0.30;0.30;;;9.60;99.90;;;;;;5052590;28;20954;-82
2022/12/23 07:11:28;;;;;;;0.30;0.20;;;9.60;99.90;;;;;;5052884;28;20949;-82
2022/12/23 07:13:54;;;;;;;0.30;0.30;;;9.60;99.90;;;;;;5052829;28;20474;-82
2022/12/23 07:16:21;;;;;;;0.30;0.20;;;9.60;99.90;;;;;;5052885;28;20450;-82
2022/12/23 07:18:48;;;;;;;0.30;0.30;;;9.60;99.90;;;;;;5052810;28;20494;-82
2022/12/23 07:21:14;;;;;;;0.90;0.30;;;9.70;99.90;;;;;;5052498;28;20798;-82
2022/12/23 07:23:41;;;;;;;0.30;0.30;;;9.70;99.90;;;;;;5052517;28;20496;-82
2022/12/23 07:26:08;;;;;;;0.30;0.30;;;9.70;99.90;;;;;;5053020;28;20486;-82
2022/12/23 07:28:36;;;;;;;0.30;0.30;;;9.70;99.90;;;;;;5052740;28;20446;-82
2022/12/23 07:31:05;;;;;;;0.30;0.20;;;9.70;99.90;;;;;;5052815;28;20881;-82
2022/12/23 07:33:32;;;;;;;0.40;0.37;;;9.80;99.90;;;;;;5052678;28;20470;-82
2022/12/23 07:35:59;;;;;;;0.50;0.30;;;9.80;99.90;;;;;;5052437;28;20439;-82
2022/12/23 07:38:25;;;;;;;1.80;0.40;;;9.80;99.90;;;;;;5052892;28;20489;-82
2022/12/23 07:40:52;;;;;;;0.30;0.30;;;9.80;99.90;;;;;;5056313;28;20447;-82
2022/12/23 07:43:19;;;;;;;0.30;0.20;;;9.80;99.90;;;;;;5055879;28;20981;-82
2022/12/23 07:45:47;;;;;;;0.30;0.30;;;9.90;99.90;;;;;;5056230;28;20446;-82
2022/12/23 07:48:14;;;;;;;0.40;0.30;;;9.90;99.90;;;;;;5056132;28;20457;-82
2022/12/23 07:50:40;;;;;;;0.30;0.30;;;9.90;99.90;;;;;;5056128;28;20449;-82
2022/12/23 07:53:07;;;;;;;0.30;0.30;;;9.90;99.90;;;;;;5056059;28;20469;-82
2022/12/23 07:55:34;;;;;;;0.30;0.30;;;9.90;99.90;;;;;;5056000;28;20479;-82
2022/12/23 07:58:01;;;;;;;0.30;0.30;;;9.90;99.90;;;;;;5055785;28;20829;-82
2022/12/23 08:00:28;;;;;;;0.30;0.20;;;9.90;99.90;;;;;;5056161;28;20580;-81
2022/12/23 08:02:56;;;;;;;0.90;0.40;;;9.90;99.90;;;;;;5055796;28;20457;-81
2022/12/23 08:05:22;;;;;;;0.50;0.30;;;9.90;99.90;;;;;;5055845;28;20435;-82
2022/12/23 08:07:51;;;;;;;0.30;0.23;;;9.90;99.90;;;;;;5055470;28;20811;-82
2022/12/23 08:10:18;;;;;;;0.30;0.20;;;9.90;99.90;;;;;;5055772;28;20450;-82
2022/12/23 08:12:45;;;;;;;0.70;0.40;;;9.90;99.90;;;;;;5055368;28;20438;-82
2022/12/23 08:15:12;;;;;;;1.27;0.30;;;10.00;99.90;;;;;;5055685;28;20454;-82
2022/12/23 08:17:38;;;;;;;0.30;0.20;;;10.00;99.90;;;;;;5055557;28;20497;-82
2022/12/23 08:20:08;;;;;;;0.30;0.20;;;10.00;99.90;;;;;;5055272;28;20973;-82
2022/12/23 08:22:34;;;;;;;0.50;0.43;;;10.10;99.90;;;;;;5055517;28;20824;-82
2022/12/23 08:25:01;;;;;;;0.30;0.30;;;10.10;99.90;;;;;;5054997;28;20490;-81
2022/12/23 08:27:28;;;;;;;0.30;0.20;;;10.10;99.90;;;;;;5055492;28;20442;-82
2022/12/23 08:29:55;;;;;;;0.30;0.30;;;10.10;99.90;;;;;;5055348;28;20461;-82
2022/12/23 08:32:21;;;;;;;0.30;0.20;;;10.10;99.90;;;;;;5055346;28;20453;-82
2022/12/23 08:34:48;;;;;;;0.30;0.30;;;10.10;99.90;;;;;;5055341;28;20463;-82
2022/12/23 08:37:16;;;;;;;0.30;0.20;;;10.10;99.90;;;;;;5055142;28;20501;-82
2022/12/23 08:39:43;;;;;;;0.30;0.30;;;10.20;99.90;;;;;;5054946;28;20815;-82
2022/12/23 08:42:10;;;;;;;0.30;0.30;;;10.20;99.90;;;;;;5054921;28;20434;-82
2022/12/23 08:44:37;;;;;;;0.30;0.30;;;10.20;99.90;;;;;;5054754;28;20466;-82
2022/12/23 08:47:03;;;;;;;0.30;0.20;;;10.20;99.90;;;;;;5055309;28;20442;-82
2022/12/23 08:49:30;;;;;;;0.43;0.30;;;10.20;99.90;;;;;;5054784;28;20455;-81
2022/12/23 08:51:57;;;;;;;0.30;0.30;;;10.20;99.90;;;;;;5054694;28;20449;-82
2022/12/23 08:54:25;;;;;;;0.30;0.30;;;10.30;99.90;;;;;;5054896;28;20478;-82
2022/12/23 08:56:52;;;;;;;0.30;0.27;;;10.30;99.90;;;;;;5054920;28;20460;-82
2022/12/23 08:59:19;;;;;;;0.30;0.30;;;10.30;99.90;;;;;;5054453;28;21000;-82
2022/12/23 09:01:46;;;;;;;0.30;0.30;;;10.40;99.90;;;;;;5054794;28;20455;-82
2022/12/23 09:04:13;;;;;;;0.30;0.27;;;10.40;99.90;;;;;;5054684;28;20481;-82
2022/12/23 09:06:41;;;;;;;0.40;0.30;;;10.40;99.90;;;;;;5054356;28;20447;-82
2022/12/23 09:09:10;;;;;;;0.30;0.27;;;10.50;99.90;;;;;;5054695;28;20445;-82
2022/12/23 09:11:38;;;;;;;0.37;0.30;;;10.50;99.90;;;;;;5054643;28;20526;-81
2022/12/23 09:14:07;;;;;;;0.30;0.30;;;10.50;99.90;;;;;;5054486;28;20474;-82
2022/12/23 09:16:34;;;;;;;0.30;0.30;;;10.50;99.90;;;;;;5054523;28;20451;-81
2022/12/23 09:19:00;;;;;;;0.30;0.20;;;10.50;99.90;;;;;;5054397;28;20561;-79
2022/12/23 09:21:27;;;;;;;0.33;0.27;;;10.50;99.90;;;;;;5054111;28;20462;-80
2022/12/23 09:23:54;;;;;;;0.73;0.40;;;10.60;99.90;;;;;;5054121;28;20490;-80
2022/12/23 09:26:23;;;;;;;0.30;0.30;;;10.50;99.90;;;;;;5053954;28;20785;-81
2022/12/23 09:28:52;;;;;;;0.30;0.30;;;10.60;99.90;;;;;;5054292;28;20443;-80
2022/12/23 09:31:19;;;;;;;0.37;0.33;;;10.60;99.90;;;;;;5054009;28;20464;-81
2022/12/23 09:33:48;;;;;;;0.33;0.30;;;10.60;99.90;;;;;;5054173;28;20475;-80
2022/12/23 09:36:15;;;;;;;0.40;0.30;;;10.60;99.90;;;;;;5053819;28;20930;-83
2022/12/23 09:38:41;;;;;;;0.30;0.30;;;10.50;99.90;;;;;;5053793;28;20479;-81
2022/12/23 09:41:22;;;;;;;0.67;0.30;;;10.50;99.90;;;;;;5054064;28;20823;-81
2022/12/23 09:44:01;;;;;;;0.30;0.30;;;10.50;99.90;;;;;;5053879;28;20492;-81
2022/12/23 09:46:32;;;;;;;0.40;0.30;;;10.40;99.90;;;;;;5053971;28;20437;-80
2022/12/23 09:49:02;;;;;;;0.30;0.30;;;10.50;99.90;;;;;;5053928;28;20448;-81
2022/12/23 09:51:30;;;;;;;0.30;0.20;;;10.50;99.90;;;;;;5053845;28;20451;-81
2022/12/23 09:54:05;;;;;;;0.40;0.30;;;10.40;99.90;;;;;;5053482;28;20466;-82
2022/12/23 09:56:39;;;;;;;0.30;0.20;;;10.40;99.90;;;;;;5054381;28;20438;-81
2022/12/23 09:59:19;;;;;;;0.40;0.30;;;10.50;99.90;;;;;;5053717;28;20473;-81
2022/12/23 10:01:54;;;;;;;0.30;0.30;;;10.50;99.90;;;;;;5053213;28;20438;-81
2022/12/23 10:04:33;;;;;;;0.40;0.40;;;10.50;99.90;;;;;;5053902;28;20489;-81
2022/12/23 10:07:17;;;;;;;0.30;0.30;;;10.50;99.90;;;;;;5053639;28;20441;-81
2022/12/23 10:09:47;;;;;;;0.30;0.30;;;10.60;99.90;;;;;;5053639;28;20481;-81
2022/12/23 10:12:22;;;;;;;0.30;0.30;;;10.60;99.90;;;;;;5053754;28;20451;-81
2022/12/23 10:14:52;;;;;;;0.30;0.20;;;10.60;99.90;;;;;;5053483;28;20512;-81
2022/12/23 10:17:27;;;;;;;0.30;0.30;;;10.70;99.90;;;;;;5054543;28;20438;-81
2022/12/23 10:19:58;;;;;;;0.30;0.30;;;10.70;99.90;;;;;;5053596;28;20434;-81
2022/12/23 10:22:30;;;;;;;0.30;0.30;;;10.70;99.90;;;;;;5053424;28;20435;-81
2022/12/23 10:24:58;;;;;;;0.30;0.30;;;10.70;99.90;;;;;;5052842;28;20493;-81
2022/12/23 10:27:30;;;;;;;0.40;0.33;;;10.70;99.90;;;;;;5053393;28;20553;-81
2022/12/23 10:30:01;;;;;;;0.37;0.30;;;10.70;99.90;;;;;;5053331;28;20427;-81
2022/12/23 10:32:41;;;;;;;0.30;0.30;;;10.70;99.90;;;;;;5053523;28;20443;-81
2022/12/23 10:35:15;;;;;;;0.40;0.30;;;10.70;99.90;;;;;;5053268;28;20426;-81
2022/12/23 10:37:55;;;;;;;0.30;0.30;;;10.70;99.90;;;;;;5052912;28;20434;-81
2022/12/23 10:40:26;;;;;;;2.10;0.40;;;10.70;99.90;;;;;;5053250;28;20437;-81
2022/12/23 10:43:04;;;;;;;0.30;0.30;;;10.70;99.90;;;;;;5052905;28;20424;-81
2022/12/23 10:45:47;;;;;;;0.30;0.30;;;10.70;99.90;;;;;;5053198;28;20458;-81
2022/12/23 10:48:29;;;;;;;0.40;0.33;;;10.80;99.90;;;;;;5052971;28;20466;-81
2022/12/23 10:51:01;;;;;;;0.30;0.30;;;10.80;99.90;;;;;;5052867;28;20854;-82
2022/12/23 10:53:34;;;;;;;0.30;0.30;;;10.90;99.90;;;;;;5053738;28;20474;-81
2022/12/23 10:56:01;;;;;;;0.40;0.33;;;10.90;99.90;;;;;;5053093;28;20978;-81
2022/12/23 10:58:28;;;;;;;0.70;0.30;;;10.90;99.90;;;;;;5053070;28;20466;-81
2022/12/23 11:00:59;;;;;;;0.30;0.30;;;11.00;99.90;;;;;;5053075;28;20461;-82
2022/12/23 11:03:29;;;;;;;0.30;0.30;;;11.00;99.90;;;;;;5053014;28;20652;-80
2022/12/23 11:05:57;;;;;;;0.40;0.40;;;11.10;99.90;;;;;;5052756;28;20899;-81
2022/12/23 11:08:28;;;;;;;0.37;0.30;;;11.20;99.90;;;;;;5052976;28;20492;-81
2022/12/23 11:10:55;;;;;;;0.30;0.30;;;11.30;99.90;;;;;;5052701;28;20442;-82
2022/12/23 11:13:34;;;;;;;0.30;0.30;;;11.30;99.90;;;;;;5053121;28;20471;-81
2022/12/23 11:16:15;;;;;;;0.30;0.30;;;11.30;99.90;;;;;;5056867;28;20906;-81
2022/12/23 11:18:53;;;;;;;0.40;0.30;;;11.30;99.90;;;;;;5056906;28;20821;-81
2022/12/23 11:21:20;;;;;;;0.37;0.27;;;11.30;99.90;;;;;;5056809;28;20438;-81
2022/12/23 11:23:47;;;;;;;0.30;0.30;;;11.30;99.90;;;;;;5056229;28;20497;-81
2022/12/23 11:26:19;;;;;;;0.70;0.30;;;11.30;99.90;;;;;;5056641;28;20457;-81
2022/12/23 11:28:49;;;;;;;0.30;0.30;;;11.30;99.90;;;;;;5056311;28;20914;-81
2022/12/23 11:31:25;;;;;;;0.30;0.30;;;11.30;99.90;;;;;;5056527;28;20457;-80
2022/12/23 11:33:57;;;;;;;0.70;0.30;;;11.40;99.90;;;;;;5056473;28;20466;-80
2022/12/23 11:36:26;;;;;;;0.30;0.20;;;11.50;99.90;;;;;;5056178;28;20430;-80
2022/12/23 11:38:59;;;;;;;0.47;0.30;;;11.50;99.90;;;;;;5056348;28;21024;-80
2022/12/23 11:41:28;;;;;;;0.30;0.30;;;11.40;99.90;;;;;;5056381;28;20756;-80
2022/12/23 11:44:00;;;;;;;0.30;0.20;;;11.50;99.90;;;;;;5055883;28;20841;-81
2022/12/23 11:46:31;;;;;;;0.30;0.30;;;11.50;99.90;;;;;;5056249;28;20434;-80
2022/12/23 11:49:15;;;;;;;0.30;0.27;;;11.50;99.90;;;;;;5057044;28;20822;-80
2022/12/23 11:51:42;;;;;;;0.30;0.20;;;11.50;99.90;;;;;;5056190;28;20434;-80
2022/12/23 11:54:16;;;;;;;0.40;0.30;;;11.50;99.90;;;;;;5056027;28;20474;-81
2022/12/23 11:56:43;;;;;;;0.30;0.30;;;11.50;99.90;;;;;;5056056;28;20431;-81
2022/12/23 11:59:28;;;;;;;0.40;0.40;;;11.50;99.90;;;;;;5055736;28;20478;-81
2022/12/23 12:01:59;;;;;;;0.50;0.40;;;11.50;99.90;;;;;;5056008;28;20450;-81
2022/12/23 12:04:30;;;;;;;0.30;0.30;;;11.50;99.90;;;;;;5055826;28;20474;-81
2022/12/23 12:06:57;;;;;;;0.40;0.30;;;11.50;99.90;;;;;;5055529;28;20788;-81
2022/12/23 12:09:24;;;;;;;0.30;0.30;;;11.50;99.90;;;;;;5055520;28;20443;-82
2022/12/23 12:11:56;;;;;;;0.30;0.20;;;11.40;99.90;;;;;;5055853;28;20435;-81
2022/12/23 12:14:32;;;;;;;0.60;0.30;;;11.40;99.90;;;;;;5055407;28;20977;-81
2022/12/23 12:17:07;;;;;;;0.30;0.30;;;11.40;99.90;;;;;;5055759;28;20438;-82
2022/12/23 12:19:39;;;;;;;0.30;0.30;;;11.40;99.90;;;;;;5055267;28;20969;-81
2022/12/23 12:22:12;;;;;;;0.40;0.40;;;11.30;99.90;;;;;;5055617;28;20431;-80
2022/12/23 12:24:44;;;;;;;0.30;0.20;;;11.30;99.90;;;;;;5054519;28;20482;-81
2022/12/23 12:27:11;;;;;;;0.60;0.30;;;11.30;99.90;;;;;;5055522;28;20439;-81
2022/12/23 12:29:45;;;;;;;0.40;0.30;;;11.30;99.90;;;;;;5055468;28;20431;-81
2022/12/23 12:32:19;;;;;;;0.30;0.20;;;11.30;99.90;;;;;;5055523;28;20743;-81
2022/12/23 12:34:52;;;;;;;0.40;0.30;;;11.40;99.90;;;;;;5055084;28;20474;-81
2022/12/23 12:37:27;;;;;;;0.40;0.37;;;11.30;99.90;;;;;;5055040;28;20907;-82
2022/12/23 12:39:58;;;;;;;0.83;0.40;;;11.30;99.90;;;;;;5055261;28;20462;-81
2022/12/23 12:42:30;;;;;;;0.30;0.30;;;11.40;99.90;;;;;;5055252;28;20434;-82
2022/12/23 12:45:05;;;;;;;0.30;0.20;;;11.30;99.90;;;;;;5054737;28;20985;-81
2022/12/23 12:47:38;;;;;;;0.30;0.20;;;11.40;99.90;;;;;;5055122;28;20485;-82
2022/12/23 12:50:13;;;;;;;0.47;0.30;;;11.40;99.90;;;;;;5055109;28;20430;-81
2022/12/23 12:52:42;;;;;;;0.30;0.20;;;11.40;99.90;;;;;;5054662;28;20435;-81
2022/12/23 12:55:19;;;;;;;0.37;0.37;;;11.40;99.90;;;;;;5054982;28;20450;-82
2022/12/23 12:57:46;;;;;;;0.30;0.20;;;11.40;99.90;;;;;;5054930;28;20439;-81
2022/12/23 13:00:18;;;;;;;0.33;0.30;;;11.40;99.90;;;;;;5054786;28;20489;-81
2022/12/23 13:03:04;;;;;;;0.40;0.30;;;11.40;99.90;;;;;;5054974;28;20458;-81
2022/12/23 13:05:43;;;;;;;0.30;0.30;;;11.40;99.90;;;;;;5054788;28;20438;-81
2022/12/23 13:08:25;;;;;;;0.30;0.20;;;11.40;99.90;;;;;;5054715;28;20431;-81
2022/12/23 13:10:56;;;;;;;0.73;0.73;;;11.40;99.90;;;;;;5054381;28;20441;-81
2022/12/23 13:13:35;;;;;;;0.80;0.30;;;11.40;99.90;;;;;;5054597;28;20805;-81
2022/12/23 13:16:10;;;;;;;0.40;0.40;;;11.40;99.90;;;;;;5054282;28;20942;-81
2022/12/23 13:18:46;;;;;;;0.40;0.30;;;11.40;99.90;;;;;;5054487;28;20433;-81
2022/12/23 13:21:20;;;;;;;0.60;0.33;;;11.40;99.90;;;;;;5054479;28;20430;-81
2022/12/23 13:23:52;;;;;;;0.30;0.30;;;11.40;99.90;;;;;;5054284;28;20494;-81
2022/12/23 13:26:29;;;;;;;0.30;0.30;;;11.40;99.90;;;;;;5054160;28;20411;-81
2022/12/23 13:29:06;;;;;;;0.43;0.30;;;11.50;99.90;;;;;;5054398;28;20775;-81
2022/12/23 13:31:46;;;;;;;0.30;0.20;;;11.40;99.90;;;;;;5054313;28;20437;-81
2022/12/23 13:34:26;;;;;;;0.70;0.27;;;11.40;99.90;;;;;;5054237;28;20476;-81
2022/12/23 13:37:00;;;;;;;1.77;0.40;;;11.40;99.90;;;;;;5053358;28;20799;-81
2022/12/23 13:39:46;;;;;;;1.17;0.30;;;11.50;99.90;;;;;;5053896;28;20465;-81